createdAt,value
2022-08-29T00:00:35.062Z,1.70
2022-08-29T00:03:09.182Z,1.60
2022-08-29T00:05:42.564Z,1.63
2022-08-29T00:08:11.791Z,1.52
2022-08-29T00:10:40.768Z,1.60
2022-08-29T00:13:10.573Z,1.75
2022-08-29T00:15:44.766Z,1.65
2022-08-29T00:18:13.762Z,1.50
2022-08-29T00:20:44.588Z,1.58
2022-08-29T00:23:12.793Z,1.58
2022-08-29T00:25:41.113Z,1.70
2022-08-29T00:28:09.104Z,1.40
2022-08-29T00:30:38.664Z,1.70
2022-08-29T00:33:06.688Z,1.73
2022-08-29T00:35:37.247Z,1.85
2022-08-29T00:38:12.185Z,2.00
2022-08-29T00:40:44.997Z,1.70
2022-08-29T00:43:20.465Z,1.38
2022-08-29T00:45:54.538Z,1.50
2022-08-29T00:48:23.019Z,1.58
2022-08-29T00:50:55.504Z,1.50
2022-08-29T00:53:30.302Z,1.60
2022-08-29T00:56:00.098Z,1.48
2022-08-29T00:58:33.801Z,1.50
2022-08-29T01:01:03.231Z,1.70
2022-08-29T01:03:34.911Z,1.55
2022-08-29T01:06:05.089Z,1.55
2022-08-29T01:08:35.621Z,1.35
2022-08-29T01:11:22.401Z,1.60
2022-08-29T01:13:52.582Z,1.30
2022-08-29T01:16:22.002Z,1.40
2022-08-29T01:18:54.779Z,1.42
2022-08-29T01:21:31.117Z,1.50
2022-08-29T01:24:12.620Z,1.70
2022-08-29T01:26:43.623Z,1.50
2022-08-29T01:29:12.287Z,1.45
2022-08-29T01:31:56.077Z,1.23
2022-08-29T01:34:27.580Z,1.65
2022-08-29T01:36:57.925Z,1.17
2022-08-29T01:39:29.532Z,1.42
2022-08-29T01:42:01.241Z,1.50
2022-08-29T01:44:29.326Z,1.42
2022-08-29T01:47:02.769Z,1.52
2022-08-29T01:49:33.833Z,1.35
2022-08-29T01:52:02.515Z,1.73
2022-08-29T01:54:30.881Z,1.55
2022-08-29T01:57:00.466Z,1.50
2022-08-29T01:59:30.375Z,1.50
2022-08-29T02:02:02.797Z,1.50
2022-08-29T02:04:31.538Z,1.20
2022-08-29T02:06:59.785Z,1.60
2022-08-29T02:09:28.920Z,1.30
2022-08-29T02:11:58.155Z,1.35
2022-08-29T02:14:27.645Z,1.40
2022-08-29T02:16:55.637Z,1.40
2022-08-29T02:19:26.959Z,1.20
2022-08-29T02:21:56.233Z,1.52
2022-08-29T02:24:26.224Z,1.63
2022-08-29T02:26:55.953Z,1.63
2022-08-29T02:29:24.263Z,1.70
2022-08-29T02:31:53.683Z,1.60
2022-08-29T02:34:22.474Z,1.55
2022-08-29T02:36:50.797Z,2.00
2022-08-29T02:39:19.429Z,1.65
2022-08-29T02:41:50.410Z,1.60
2022-08-29T02:44:20.480Z,1.58
2022-08-29T02:46:49.239Z,1.70
2022-08-29T02:49:19.099Z,1.63
2022-08-29T02:51:47.165Z,1.55
2022-08-29T02:54:15.127Z,1.52
2022-08-29T02:56:43.215Z,1.70
2022-08-29T02:59:11.398Z,1.70
2022-08-29T03:01:39.712Z,1.98
2022-08-29T03:04:08.035Z,1.67
2022-08-29T03:06:37.603Z,1.67
2022-08-29T03:09:06.352Z,1.58
2022-08-29T03:11:34.441Z,1.60
2022-08-29T03:14:02.617Z,1.60
2022-08-29T03:16:36.053Z,1.80
2022-08-29T03:19:04.399Z,1.70
2022-08-29T03:21:33.571Z,1.70
2022-08-29T03:24:03.061Z,1.55
2022-08-29T03:26:31.428Z,1.70
2022-08-29T03:28:59.454Z,1.70
2022-08-29T03:31:27.542Z,1.50
2022-08-29T03:33:56.347Z,1.67
2022-08-29T03:36:27.274Z,1.75
2022-08-29T03:38:55.240Z,1.60
2022-08-29T03:41:27.175Z,1.58
2022-08-29T03:43:56.556Z,2.20
2022-08-29T03:46:24.576Z,1.65
2022-08-29T03:48:52.950Z,1.67
2022-08-29T03:51:22.804Z,2.03
2022-08-29T03:53:53.060Z,1.77
2022-08-29T03:56:21.865Z,1.88
2022-08-29T03:58:53.641Z,1.60
2022-08-29T04:01:22.737Z,1.67
2022-08-29T04:03:51.422Z,1.73
2022-08-29T04:06:19.981Z,1.80
2022-08-29T04:08:48.567Z,1.73
2022-08-29T04:11:19.791Z,2.00
2022-08-29T04:13:49.169Z,1.73
2022-08-29T04:16:21.017Z,1.85
2022-08-29T04:18:49.207Z,1.83
2022-08-29T04:21:18.510Z,1.90
2022-08-29T04:23:47.359Z,1.92
2022-08-29T04:29:06.731Z,1.60
2022-08-29T04:31:37.744Z,1.88
2022-08-29T04:34:07.606Z,1.90
2022-08-29T04:36:35.921Z,1.70
2022-08-29T04:39:06.031Z,1.92
2022-08-29T04:41:34.645Z,1.88
2022-08-29T04:44:02.968Z,1.58
2022-08-29T04:46:31.092Z,1.60
2022-08-29T04:49:03.948Z,1.80
2022-08-29T04:51:32.954Z,2.08
2022-08-29T04:54:00.902Z,2.00
2022-08-29T04:56:29.017Z,1.98
2022-08-29T04:58:57.855Z,2.45
2022-08-29T05:01:27.411Z,1.95
2022-08-29T05:04:14.790Z,1.83
2022-08-29T05:06:44.553Z,1.92
2022-08-29T05:09:12.427Z,1.73
2022-08-29T05:11:41.492Z,1.70
2022-08-29T05:14:09.583Z,1.50
2022-08-29T05:16:38.996Z,1.88
2022-08-29T05:19:08.625Z,2.10
2022-08-29T05:21:44.911Z,1.50
2022-08-29T05:24:14.415Z,1.75
2022-08-29T05:26:48.909Z,1.63
2022-08-29T05:29:17.585Z,1.80
2022-08-29T05:31:49.911Z,1.90
2022-08-29T05:34:34.759Z,1.85
2022-08-29T05:37:05.214Z,2.03
2022-08-29T05:39:41.158Z,1.65
2022-08-29T05:42:17.395Z,1.60
2022-08-29T05:44:46.041Z,2.30
2022-08-29T05:47:17.394Z,1.73
2022-08-29T05:49:49.146Z,1.60
2022-08-29T05:52:19.805Z,1.50
2022-08-29T05:54:50.075Z,1.60
2022-08-29T05:57:21.000Z,1.80
2022-08-29T05:59:50.669Z,1.50
2022-08-29T06:02:19.532Z,1.55
2022-08-29T06:04:47.844Z,1.50
2022-08-29T06:07:15.923Z,1.58
2022-08-29T06:09:44.630Z,1.63
2022-08-29T06:12:15.553Z,1.73
2022-08-29T06:14:49.998Z,1.88
2022-08-29T06:17:18.689Z,1.92
2022-08-29T06:19:46.629Z,1.60
2022-08-29T06:22:14.592Z,1.50
2022-08-29T06:24:44.610Z,1.70
2022-08-29T06:27:14.649Z,1.60
2022-08-29T06:29:43.570Z,1.77
2022-08-29T06:32:12.149Z,1.77
2022-08-29T06:34:40.305Z,1.92
2022-08-29T06:37:08.379Z,1.55
2022-08-29T06:39:36.914Z,1.48
2022-08-29T06:42:05.505Z,1.60
2022-08-29T06:44:35.858Z,1.70
2022-08-29T06:47:04.330Z,1.63
2022-08-29T06:49:33.483Z,1.60
2022-08-29T06:52:01.563Z,1.80
2022-08-29T06:54:30.564Z,1.60
2022-08-29T06:56:59.918Z,2.05
2022-08-29T06:59:28.039Z,1.83
2022-08-29T07:01:57.709Z,1.83
2022-08-29T07:04:26.665Z,1.52
2022-08-29T07:06:55.088Z,1.55
2022-08-29T07:09:23.495Z,1.45
2022-08-29T07:11:51.533Z,1.70
2022-08-29T07:14:19.422Z,1.50
2022-08-29T07:16:47.985Z,1.60
2022-08-29T07:19:17.316Z,1.23
2022-08-29T07:21:45.234Z,1.50
2022-08-29T07:24:13.666Z,1.55
2022-08-29T07:26:43.822Z,1.50
2022-08-29T07:29:17.366Z,1.20
2022-08-29T07:31:45.326Z,1.50
2022-08-29T07:34:13.359Z,1.50
2022-08-29T07:36:42.883Z,1.38
2022-08-29T07:39:13.639Z,1.45
2022-08-29T07:41:44.010Z,1.50
2022-08-29T07:44:13.084Z,1.27
2022-08-29T07:46:42.257Z,1.20
2022-08-29T07:49:14.001Z,1.23
2022-08-29T07:51:44.576Z,1.45
2022-08-29T07:54:16.890Z,1.30
2022-08-29T07:56:46.560Z,1.38
2022-08-29T07:59:15.216Z,1.40
2022-08-29T08:01:43.583Z,1.20
2022-08-29T08:04:12.107Z,1.27
2022-08-29T08:06:44.556Z,1.40
2022-08-29T08:09:14.259Z,1.33
2022-08-29T08:11:42.948Z,1.30
2022-08-29T08:14:11.448Z,1.10
2022-08-29T08:16:44.196Z,1.27
2022-08-29T08:19:13.106Z,1.23
2022-08-29T08:21:49.320Z,1.20
2022-08-29T08:24:20.006Z,1.15
2022-08-29T08:26:48.533Z,1.05
2022-08-29T08:29:16.666Z,1.20
2022-08-29T08:31:45.298Z,1.08
2022-08-29T08:34:15.522Z,1.20
2022-08-29T08:36:45.394Z,1.02
2022-08-29T08:39:15.585Z,0.80
2022-08-29T08:41:53.686Z,1.00
2022-08-29T08:44:55.658Z,1.17
2022-08-29T08:47:29.901Z,0.88
2022-08-29T08:50:06.637Z,1.10
2022-08-29T08:52:41.709Z,0.98
2022-08-29T08:55:20.989Z,0.90
2022-08-29T08:58:00.783Z,1.10
2022-08-29T09:00:35.119Z,1.02
2022-08-29T09:03:12.538Z,0.95
2022-08-29T09:05:56.404Z,1.10
2022-08-29T09:08:38.143Z,1.00
2022-08-29T09:11:15.727Z,1.00
2022-08-29T09:13:56.722Z,1.05
2022-08-29T09:16:28.538Z,0.90
2022-08-29T09:19:00.708Z,1.05
2022-08-29T09:21:41.072Z,1.15
2022-08-29T09:24:14.186Z,1.00
2022-08-29T09:26:42.374Z,1.00
2022-08-29T09:29:13.260Z,0.90
2022-08-29T09:31:42.348Z,0.90
2022-08-29T09:34:13.026Z,1.00
2022-08-29T09:36:45.847Z,0.80
2022-08-29T09:39:24.506Z,0.90
2022-08-29T09:41:56.029Z,1.00
2022-08-29T09:44:28.644Z,1.00
2022-08-29T09:47:12.555Z,0.90
2022-08-29T09:50:07.278Z,0.80
2022-08-29T09:52:40.773Z,1.08
2022-08-29T09:55:35.188Z,1.15
2022-08-29T09:58:06.033Z,0.88
2022-08-29T10:00:39.069Z,0.80
2022-08-29T10:03:10.266Z,1.15
2022-08-29T10:05:45.908Z,0.98
2022-08-29T10:08:35.114Z,0.80
2022-08-29T10:11:05.940Z,0.80
2022-08-29T10:13:45.754Z,0.98
2022-08-29T10:16:20.356Z,0.90
2022-08-29T10:19:01.124Z,0.85
2022-08-29T10:21:47.239Z,0.95
2022-08-29T10:24:43.024Z,0.98
2022-08-29T10:27:25.422Z,0.60
2022-08-29T10:30:10.697Z,0.73
2022-08-29T10:33:12.741Z,0.70
2022-08-29T10:36:26.639Z,0.70
2022-08-29T10:39:13.310Z,0.70
2022-08-29T10:41:53.732Z,0.80
2022-08-29T10:44:34.002Z,0.80
2022-08-29T10:47:18.489Z,0.80
2022-08-29T10:50:04.158Z,0.80
2022-08-29T10:52:44.554Z,0.75
2022-08-29T10:55:20.214Z,1.00
2022-08-29T10:57:59.820Z,0.73
2022-08-29T11:00:36.614Z,1.60
2022-08-29T11:03:13.816Z,0.90
2022-08-29T11:05:51.783Z,0.80
2022-08-29T11:08:26.854Z,1.00
2022-08-29T11:10:55.375Z,0.80
2022-08-29T11:13:30.713Z,0.88
2022-08-29T11:16:11.132Z,0.90
2022-08-29T11:18:44.394Z,1.00
2022-08-29T11:21:35.725Z,0.80
2022-08-29T11:24:07.366Z,0.85
2022-08-29T11:26:50.198Z,0.73
2022-08-29T11:29:27.157Z,0.93
2022-08-29T11:32:05.967Z,1.00
2022-08-29T11:34:48.478Z,1.00
2022-08-29T11:37:54.078Z,0.60
2022-08-29T11:41:26.361Z,1.25
2022-08-29T11:43:36.903Z,0.70
2022-08-29T11:46:07.577Z,0.77
2022-08-29T11:48:39.091Z,0.80
2022-08-29T11:51:32.018Z,0.70
2022-08-29T11:54:42.424Z,0.82
2022-08-29T11:57:39.889Z,0.90
2022-08-29T12:02:59.856Z,0.60
2022-08-29T12:05:54.954Z,0.63
2022-08-29T12:08:37.253Z,1.10
2022-08-29T12:11:07.728Z,0.90
2022-08-29T12:14:04.694Z,0.80
2022-08-29T12:16:51.391Z,0.80
2022-08-29T12:19:54.681Z,0.90
2022-08-29T12:22:59.482Z,0.90
2022-08-29T12:25:46.217Z,0.80
2022-08-29T12:28:35.147Z,1.00
2022-08-29T12:31:12.923Z,0.80
2022-08-29T12:33:58.609Z,0.90
2022-08-29T12:36:37.299Z,1.00
2022-08-29T12:39:19.568Z,0.90
2022-08-29T12:42:07.391Z,1.08
2022-08-29T12:44:39.345Z,0.93
2022-08-29T12:47:12.193Z,0.70
2022-08-29T12:49:48.763Z,0.98
2022-08-29T12:52:24.461Z,0.70
2022-08-29T12:54:56.473Z,0.70
2022-08-29T12:57:35.715Z,1.02
2022-08-29T13:00:16.747Z,0.98
2022-08-29T13:02:57.856Z,0.90
2022-08-29T13:05:29.187Z,0.80
2022-08-29T13:08:02.377Z,0.77
2022-08-29T13:10:31.480Z,0.82
2022-08-29T13:13:10.262Z,0.93
2022-08-29T13:15:40.356Z,0.90
2022-08-29T13:18:10.252Z,1.02
2022-08-29T13:20:48.550Z,1.20
2022-08-29T13:23:22.961Z,0.90
2022-08-29T13:25:55.643Z,0.80
2022-08-29T13:28:30.241Z,0.85
2022-08-29T13:31:38.838Z,1.00
2022-08-29T13:34:23.731Z,1.00
2022-08-29T13:36:59.444Z,0.77
2022-08-29T13:39:41.711Z,0.77
2022-08-29T13:42:32.092Z,0.90
2022-08-29T13:45:05.686Z,0.88
2022-08-29T13:47:48.838Z,0.80
2022-08-29T13:50:16.812Z,0.70
2022-08-29T13:52:44.736Z,0.80
2022-08-29T13:55:13.238Z,1.00
2022-08-29T13:57:42.937Z,0.90
2022-08-29T14:00:13.787Z,0.77
2022-08-29T14:02:45.441Z,0.80
2022-08-29T14:05:14.940Z,0.80
2022-08-29T14:07:45.538Z,0.88
2022-08-29T14:10:16.666Z,0.90
2022-08-29T14:12:45.834Z,0.68
2022-08-29T14:15:18.231Z,0.70
2022-08-29T14:17:49.261Z,0.73
2022-08-29T14:20:20.503Z,0.70
2022-08-29T14:22:49.060Z,0.70
2022-08-29T14:25:19.709Z,0.82
2022-08-29T14:27:48.590Z,0.70
2022-08-29T14:30:20.660Z,0.50
2022-08-29T14:32:50.517Z,0.40
2022-08-29T14:35:26.384Z,0.50
2022-08-29T14:38:01.900Z,0.60
2022-08-29T14:40:31.029Z,0.80
2022-08-29T14:42:59.630Z,0.52
2022-08-29T14:45:28.890Z,0.60
2022-08-29T14:47:58.866Z,0.50
2022-08-29T14:50:27.068Z,0.50
2022-08-29T14:55:16.532Z,0.50
2022-08-29T14:56:50.664Z,0.60
2022-08-29T14:59:19.275Z,0.45
2022-08-29T15:01:53.799Z,0.70
2022-08-29T15:04:35.762Z,0.60
2022-08-29T15:07:06.504Z,0.60
2022-08-29T15:09:34.774Z,0.60
2022-08-29T15:12:04.951Z,0.50
2022-08-29T15:14:34.534Z,0.70
2022-08-29T15:17:03.018Z,0.80
2022-08-29T15:22:22.037Z,0.60
2022-08-29T15:24:51.110Z,0.70
2022-08-29T15:27:23.640Z,0.80
2022-08-29T15:29:57.944Z,0.52
2022-08-29T15:32:26.562Z,0.88
2022-08-29T15:34:55.886Z,0.88
2022-08-29T15:37:24.723Z,0.60
2022-08-29T15:39:54.576Z,0.98
2022-08-29T15:42:28.885Z,0.60
2022-08-29T15:44:57.097Z,0.95
2022-08-29T15:47:26.313Z,1.17
2022-08-29T15:49:56.140Z,0.70
2022-08-29T15:52:24.106Z,0.80
2022-08-29T15:54:52.187Z,0.60
2022-08-29T15:57:20.649Z,0.80
2022-08-29T16:00:04.047Z,0.95
2022-08-29T16:02:32.159Z,0.90
2022-08-29T16:05:02.236Z,0.90
2022-08-29T16:07:30.367Z,1.00
2022-08-29T16:10:00.493Z,0.73
2022-08-29T16:12:30.922Z,0.90
2022-08-29T16:15:04.461Z,0.90
2022-08-29T16:17:34.732Z,0.60
2022-08-29T16:20:10.671Z,1.02
2022-08-29T16:22:39.767Z,0.60
2022-08-29T16:25:10.155Z,0.80
2022-08-29T16:27:38.455Z,0.73
2022-08-29T16:30:10.347Z,0.73
2022-08-29T16:32:40.774Z,0.70
2022-08-29T16:35:14.794Z,0.70
2022-08-29T16:37:42.876Z,0.82
2022-08-29T16:40:13.190Z,0.70
2022-08-29T16:42:43.203Z,0.80
2022-08-29T16:45:24.648Z,0.90
2022-08-29T16:47:57.255Z,0.88
2022-08-29T16:50:30.864Z,1.40
2022-08-29T16:53:00.495Z,0.93
2022-08-29T16:55:29.388Z,0.90
2022-08-29T16:58:15.912Z,1.08
2022-08-29T17:00:45.430Z,0.90
2022-08-29T17:03:18.051Z,0.70
2022-08-29T17:05:50.626Z,0.52
2022-08-29T17:08:18.130Z,0.85
2022-08-29T17:10:45.232Z,0.80
2022-08-29T17:13:15.655Z,0.60
2022-08-29T17:15:42.635Z,1.00
2022-08-29T17:18:12.434Z,0.82
2022-08-29T17:20:41.533Z,1.00
2022-08-29T17:23:16.361Z,1.15
2022-08-29T17:25:44.789Z,0.90
2022-08-29T17:28:17.978Z,0.80
2022-08-29T17:30:47.486Z,0.90
2022-08-29T17:33:16.111Z,0.70
2022-08-29T17:35:46.328Z,0.77
2022-08-29T17:38:16.901Z,0.70
2022-08-29T17:40:49.152Z,0.70
2022-08-29T17:43:26.110Z,0.70
2022-08-29T17:45:54.729Z,0.80
2022-08-29T17:48:24.209Z,0.82
2022-08-29T17:50:52.350Z,0.75
2022-08-29T17:53:22.470Z,0.80
2022-08-29T17:55:53.576Z,0.90
2022-08-29T17:58:23.181Z,1.33
2022-08-29T18:00:52.164Z,0.98
2022-08-29T18:03:20.597Z,1.13
2022-08-29T18:05:48.579Z,0.55
2022-08-29T18:08:18.954Z,0.70
2022-08-29T18:10:48.628Z,0.68
2022-08-29T18:13:21.005Z,0.70
2022-08-29T18:15:50.726Z,0.70
2022-08-29T18:18:21.262Z,0.85
2022-08-29T18:20:49.389Z,0.77
2022-08-29T18:23:17.458Z,0.70
2022-08-29T18:25:45.669Z,0.77
2022-08-29T18:28:15.023Z,0.80
2022-08-29T18:30:43.049Z,0.93
2022-08-29T18:33:13.020Z,1.00
2022-08-29T18:35:41.676Z,0.80
2022-08-29T18:38:10.276Z,0.80
2022-08-29T18:40:39.914Z,0.80
2022-08-29T18:43:09.856Z,1.15
2022-08-29T18:45:40.157Z,1.10
2022-08-29T18:48:09.156Z,1.30
2022-08-29T18:50:37.214Z,1.27
2022-08-29T18:53:08.363Z,0.98
2022-08-29T18:55:36.305Z,1.10
2022-08-29T18:58:04.851Z,1.00
2022-08-29T19:00:33.191Z,0.90
2022-08-29T19:03:03.968Z,0.80
2022-08-29T19:05:33.672Z,0.88
2022-08-29T19:08:03.873Z,1.27
2022-08-29T19:10:32.911Z,0.90
2022-08-29T19:13:00.978Z,0.70
2022-08-29T19:15:29.932Z,0.80
2022-08-29T19:17:58.524Z,0.80
2022-08-29T19:20:47.131Z,0.85
2022-08-29T19:23:16.184Z,0.70
2022-08-29T19:25:45.019Z,0.90
2022-08-29T19:28:13.106Z,1.00
2022-08-29T19:30:41.719Z,0.90
2022-08-29T19:33:11.418Z,0.90
2022-08-29T19:35:40.829Z,1.10
2022-08-29T19:38:09.576Z,0.80
2022-08-29T19:40:39.361Z,0.80
2022-08-29T19:43:13.753Z,0.80
2022-08-29T19:45:43.278Z,0.70
2022-08-29T19:48:15.392Z,0.85
2022-08-29T19:50:47.621Z,0.80
2022-08-29T19:53:24.690Z,0.90
2022-08-29T19:55:55.529Z,0.80
2022-08-29T19:58:31.034Z,0.80
2022-08-29T20:01:01.625Z,0.88
2022-08-29T20:03:30.003Z,0.70
2022-08-29T20:06:00.484Z,0.75
2022-08-29T20:08:31.408Z,0.75
2022-08-29T20:10:59.742Z,0.90
2022-08-29T20:13:34.104Z,0.88
2022-08-29T20:16:04.408Z,0.80
2022-08-29T20:18:33.142Z,1.08
2022-08-29T20:21:02.502Z,1.00
2022-08-29T20:23:31.756Z,0.82
2022-08-29T20:26:01.624Z,0.98
2022-08-29T20:28:30.952Z,0.90
2022-08-29T20:30:59.710Z,0.90
2022-08-29T20:33:28.234Z,0.98
2022-08-29T20:36:13.929Z,1.00
2022-08-29T20:38:43.197Z,0.80
2022-08-29T20:41:11.165Z,1.15
2022-08-29T20:43:39.402Z,0.80
2022-08-29T20:46:08.890Z,1.00
2022-08-29T20:48:37.639Z,0.80
2022-08-29T20:51:08.105Z,1.00
2022-08-29T20:53:37.390Z,0.80
2022-08-29T20:56:07.546Z,0.90
2022-08-29T20:58:35.850Z,0.95
2022-08-29T21:01:05.483Z,0.80
2022-08-29T21:03:52.775Z,1.02
2022-08-29T21:06:21.857Z,1.00
2022-08-29T21:08:50.027Z,1.13
2022-08-29T21:11:19.459Z,1.00
2022-08-29T21:13:52.526Z,1.00
2022-08-29T21:16:21.496Z,0.98
2022-08-29T21:18:52.427Z,1.00
2022-08-29T21:21:25.060Z,1.05
2022-08-29T21:23:53.546Z,1.00
2022-08-29T21:26:22.997Z,1.20
2022-08-29T21:28:51.081Z,1.05
2022-08-29T21:31:21.761Z,1.10
2022-08-29T21:33:49.795Z,0.90
2022-08-29T21:36:20.463Z,1.05
2022-08-29T21:38:52.018Z,1.10
2022-08-29T21:41:20.078Z,1.10
2022-08-29T21:43:49.420Z,1.00
2022-08-29T21:46:18.458Z,1.17
2022-08-29T21:48:47.541Z,0.93
2022-08-29T21:51:18.785Z,1.00
2022-08-29T21:53:47.948Z,1.10
2022-08-29T21:56:15.940Z,1.35
2022-08-29T21:58:44.242Z,1.10
2022-08-29T22:01:13.953Z,1.00
2022-08-29T22:03:42.103Z,1.00
2022-08-29T22:06:11.243Z,0.90
2022-08-29T22:08:39.750Z,0.90
2022-08-29T22:11:15.596Z,0.90
2022-08-29T22:13:43.639Z,1.15
2022-08-29T22:16:32.654Z,1.00
2022-08-29T22:19:03.250Z,0.90
2022-08-29T22:21:33.493Z,1.02
2022-08-29T22:24:02.572Z,0.90
2022-08-29T22:26:30.525Z,1.30
2022-08-29T22:28:58.636Z,1.00
2022-08-29T22:31:28.355Z,1.00
2022-08-29T22:33:56.335Z,1.20
2022-08-29T22:36:24.721Z,1.10
2022-08-29T22:38:55.406Z,0.90
2022-08-29T22:41:25.263Z,0.95
2022-08-29T22:44:19.846Z,0.90
2022-08-29T22:46:45.779Z,1.13
2022-08-29T22:49:14.216Z,1.25
2022-08-29T22:51:42.310Z,1.25
2022-08-29T22:54:27.938Z,1.05
2022-08-29T22:57:00.071Z,1.10
2022-08-29T22:59:28.564Z,1.10
2022-08-29T23:01:57.948Z,0.90
2022-08-29T23:04:26.084Z,1.10
2022-08-29T23:06:54.106Z,0.98
2022-08-29T23:09:24.643Z,0.95
2022-08-29T23:11:52.834Z,0.80
2022-08-29T23:14:21.474Z,0.90
2022-08-29T23:16:49.624Z,1.10
2022-08-29T23:19:19.229Z,1.00
2022-08-29T23:21:47.107Z,1.10
2022-08-29T23:24:15.022Z,1.10
2022-08-29T23:26:43.317Z,1.15
2022-08-29T23:29:11.346Z,1.10
2022-08-29T23:31:39.321Z,1.05
2022-08-29T23:34:08.033Z,1.02
2022-08-29T23:36:37.619Z,1.20
2022-08-29T23:39:05.786Z,1.00
2022-08-29T23:41:34.130Z,1.33
2022-08-29T23:44:02.329Z,1.40
2022-08-29T23:46:30.910Z,1.15
2022-08-29T23:48:59.854Z,0.90
2022-08-29T23:51:27.864Z,1.10
2022-08-29T23:53:57.417Z,1.00
2022-08-29T23:56:26.615Z,1.02
2022-08-29T23:58:56.356Z,0.90
